createdAt,value
2018-08-11T00:02:46.371Z,68.60
2018-08-11T00:07:39.734Z,69.40
2018-08-11T00:12:33.140Z,69.80
2018-08-11T00:17:26.511Z,70.30
2018-08-11T00:22:19.996Z,70.90
2018-08-11T00:27:13.383Z,71.50
2018-08-11T00:32:06.900Z,71.50
2018-08-11T00:37:00.313Z,71.20
2018-08-11T00:41:53.625Z,71.30
2018-08-11T00:46:47.083Z,70.40
2018-08-11T00:51:40.463Z,70.00
2018-08-11T00:56:33.858Z,69.50
2018-08-11T01:01:27.816Z,69.20
2018-08-11T01:06:21.127Z,68.80
2018-08-11T01:11:14.574Z,68.90
2018-08-11T01:16:08.095Z,69.10
2018-08-11T01:21:01.459Z,69.00
2018-08-11T01:25:54.857Z,69.20
2018-08-11T01:30:48.228Z,69.50
2018-08-11T01:35:41.646Z,69.70
2018-08-11T01:40:35.067Z,69.50
2018-08-11T01:45:28.447Z,69.40
2018-08-11T01:50:21.865Z,75.60
2018-08-11T01:55:16.591Z,79.80
2018-08-11T02:00:12.046Z,84.70
2018-08-11T02:05:06.012Z,84.60
2018-08-11T02:09:59.410Z,82.80
2018-08-11T02:14:52.828Z,84.70
2018-08-11T02:19:46.246Z,88.20
2018-08-11T02:24:39.726Z,87.80
2018-08-11T02:29:33.077Z,86.00
2018-08-11T02:34:26.511Z,88.80
2018-08-11T02:39:19.906Z,90.30
2018-08-11T02:44:13.334Z,90.30
2018-08-11T02:49:07.758Z,91.30
2018-08-11T02:54:01.769Z,91.70
2018-08-11T02:58:55.158Z,92.50
2018-08-11T03:03:48.488Z,92.60
2018-08-11T03:08:42.154Z,92.00
2018-08-11T03:13:35.504Z,92.10
2018-08-11T03:18:28.883Z,92.50
2018-08-11T03:23:22.242Z,92.60
2018-08-11T03:28:15.594Z,93.00
2018-08-11T03:33:09.054Z,93.70
2018-08-11T03:38:03.146Z,94.30
2018-08-11T03:42:57.676Z,94.80
2018-08-11T03:47:51.225Z,95.00
2018-08-11T03:52:45.575Z,95.10
2018-08-11T03:57:39.338Z,95.40
2018-08-11T04:02:34.196Z,96.00
2018-08-11T04:07:27.625Z,95.90
2018-08-11T04:12:21.201Z,96.30
2018-08-11T04:17:14.548Z,96.60
2018-08-11T04:22:09.857Z,96.80
2018-08-11T04:27:03.210Z,97.20
2018-08-11T04:31:56.554Z,97.20
2018-08-11T04:36:51.107Z,97.30
2018-08-11T04:41:45.151Z,97.30
2018-08-11T04:46:40.781Z,97.10
2018-08-11T04:51:35.281Z,97.00
2018-08-11T04:56:30.085Z,96.70
2018-08-11T05:01:24.170Z,96.20
2018-08-11T05:06:17.530Z,96.00
2018-08-11T05:11:10.836Z,96.00
2018-08-11T05:16:04.293Z,95.80
2018-08-11T05:20:57.605Z,95.80
2018-08-11T05:25:50.974Z,95.80
2018-08-11T05:30:44.514Z,95.50
2018-08-11T05:35:38.563Z,94.40
2018-08-11T05:40:32.621Z,93.30
2018-08-11T05:45:26.368Z,90.70
2018-08-11T05:50:19.729Z,88.50
2018-08-11T05:55:13.147Z,82.50
2018-08-11T06:00:08.508Z,77.70
2018-08-11T06:05:01.873Z,74.50
2018-08-11T06:09:55.163Z,69.80
2018-08-11T06:14:48.544Z,69.90
2018-08-11T06:19:41.965Z,69.90
2018-08-11T06:24:35.332Z,65.80
2018-08-11T06:29:28.699Z,62.60
2018-08-11T06:34:22.074Z,66.40
2018-08-11T06:39:15.415Z,68.40
2018-08-11T06:44:09.240Z,70.20
2018-08-11T06:49:02.630Z,66.60
2018-08-11T06:53:55.982Z,59.80
2018-08-11T06:58:49.320Z,55.10
2018-08-11T07:03:42.704Z,56.40
2018-08-11T07:08:36.052Z,56.30
2018-08-11T07:13:29.402Z,59.10
2018-08-11T07:18:22.724Z,57.10
2018-08-11T07:23:16.089Z,57.20
2018-08-11T07:28:09.458Z,56.50
2018-08-11T07:33:02.833Z,53.90
2018-08-11T07:37:56.152Z,47.50
2018-08-11T07:42:56.504Z,43.10
2018-08-11T07:47:49.898Z,44.00
2018-08-11T07:52:43.326Z,46.20
2018-08-11T07:57:36.729Z,47.00
2018-08-11T08:02:30.067Z,44.80
2018-08-11T08:07:23.434Z,45.50
2018-08-11T08:12:16.785Z,46.10
2018-08-11T08:17:10.161Z,44.40
2018-08-11T08:22:03.487Z,38.20
2018-08-11T08:26:56.899Z,36.90
2018-08-11T08:31:50.301Z,37.90
2018-08-11T08:36:43.668Z,41.20
2018-08-11T08:41:37.113Z,37.40
2018-08-11T08:46:30.478Z,35.70
2018-08-11T08:51:23.832Z,33.90
2018-08-11T08:56:17.220Z,33.20
2018-08-11T09:01:10.589Z,33.90
2018-08-11T09:06:03.960Z,33.70
2018-08-11T09:10:57.986Z,32.60
2018-08-11T09:15:51.346Z,35.30
2018-08-11T09:20:44.766Z,34.70
2018-08-11T09:25:38.099Z,33.90
2018-08-11T09:30:31.480Z,33.10
2018-08-11T09:35:24.831Z,32.00
2018-08-11T09:40:18.188Z,34.20
2018-08-11T09:45:11.568Z,33.60
2018-08-11T09:50:05.018Z,32.90
2018-08-11T09:54:58.336Z,34.70
2018-08-11T09:59:51.711Z,38.70
2018-08-11T10:04:45.058Z,38.40
2018-08-11T10:09:38.512Z,37.80
2018-08-11T10:14:40.966Z,37.60
2018-08-11T10:19:44.194Z,36.30
2018-08-11T10:24:46.342Z,35.90
2018-08-11T10:29:39.915Z,37.30
2018-08-11T10:34:37.590Z,37.50
2018-08-11T10:39:39.991Z,38.30
2018-08-11T10:44:43.615Z,38.30
2018-08-11T10:49:47.353Z,37.30
2018-08-11T10:54:52.359Z,38.60
2018-08-11T10:59:55.666Z,38.30
2018-08-11T11:04:56.645Z,38.70
2018-08-11T11:09:57.331Z,38.80
2018-08-11T11:15:05.950Z,39.60
2018-08-11T11:20:11.388Z,38.80
2018-08-11T11:25:14.705Z,38.60
2018-08-11T11:30:15.243Z,39.20
2018-08-11T11:35:18.471Z,39.00
2018-08-11T11:40:17.567Z,38.80
2018-08-11T11:45:19.442Z,39.10
2018-08-11T11:50:22.728Z,38.70
2018-08-11T11:55:22.287Z,37.60
2018-08-11T12:00:24.534Z,37.90
2018-08-11T12:05:23.298Z,38.50
2018-08-11T12:10:24.995Z,39.30
2018-08-11T12:15:28.116Z,40.10
2018-08-11T12:20:29.832Z,39.20
2018-08-11T12:25:30.390Z,38.60
2018-08-11T12:30:24.025Z,37.20
2018-08-11T12:35:25.422Z,37.20
2018-08-11T12:40:19.772Z,36.40
2018-08-11T12:45:20.329Z,37.30
2018-08-11T12:50:20.841Z,37.50
2018-08-11T12:55:22.103Z,36.30
2018-08-11T13:00:23.030Z,36.40
2018-08-11T13:05:24.292Z,36.20
2018-08-11T13:10:26.769Z,37.00
2018-08-11T13:15:28.040Z,37.40
2018-08-11T13:20:26.223Z,37.70
2018-08-11T13:25:27.425Z,36.20
2018-08-11T13:30:21.160Z,36.90
2018-08-11T13:35:20.379Z,36.40
2018-08-11T13:40:13.952Z,36.30
2018-08-11T13:45:13.472Z,35.70
2018-08-11T13:50:13.929Z,35.50
2018-08-11T13:55:15.614Z,36.30
2018-08-11T14:00:18.210Z,36.60
2018-08-11T14:05:19.329Z,36.70
2018-08-11T14:10:20.031Z,36.00
2018-08-11T14:15:18.318Z,35.40
2018-08-11T14:20:18.636Z,35.80
2018-08-11T14:25:12.140Z,34.80
2018-08-11T14:30:15.019Z,35.00
2018-08-11T14:35:16.228Z,34.90
2018-08-11T14:40:17.916Z,35.50
2018-08-11T14:45:18.755Z,36.00
2018-08-11T14:50:24.276Z,35.70
2018-08-11T14:55:26.394Z,36.50
2018-08-11T15:00:27.383Z,34.80
2018-08-11T15:05:27.541Z,35.60
2018-08-11T15:10:21.349Z,35.70
2018-08-11T15:15:21.991Z,34.80
2018-08-11T15:20:21.638Z,35.70
2018-08-11T15:25:22.882Z,35.70
2018-08-11T15:30:23.253Z,36.20
2018-08-11T15:35:23.369Z,36.50
2018-08-11T15:40:23.789Z,36.50
2018-08-11T15:45:24.813Z,37.30
2018-08-11T15:50:20.848Z,36.40
2018-08-11T15:55:22.121Z,36.60
2018-08-11T16:00:23.245Z,36.90
2018-08-11T16:05:24.151Z,37.10
2018-08-11T16:10:23.515Z,37.60
2018-08-11T16:15:24.613Z,37.80
2018-08-11T16:20:18.251Z,37.70
2018-08-11T16:25:20.777Z,37.60
2018-08-11T16:30:18.401Z,37.60
2018-08-11T16:35:12.109Z,37.40
2018-08-11T16:40:13.509Z,38.20
2018-08-11T16:45:13.321Z,38.30
2018-08-11T16:50:13.038Z,38.50
2018-08-11T16:55:06.557Z,39.70
2018-08-11T16:59:59.985Z,39.60
2018-08-11T17:04:53.404Z,39.90
2018-08-11T17:09:46.834Z,40.30
2018-08-11T17:14:40.350Z,40.40
2018-08-11T17:19:33.708Z,40.90
2018-08-11T17:24:27.109Z,40.70
2018-08-11T17:29:20.452Z,40.90
2018-08-11T17:34:13.830Z,40.50
2018-08-11T17:39:09.388Z,40.80
2018-08-11T17:44:02.842Z,41.10
2018-08-11T17:48:56.280Z,41.60
2018-08-11T17:53:49.569Z,41.60
2018-08-11T17:58:42.962Z,42.20
2018-08-11T18:03:36.316Z,42.20
2018-08-11T18:08:29.644Z,42.90
2018-08-11T18:13:23.026Z,42.80
2018-08-11T18:18:16.365Z,43.20
2018-08-11T18:23:09.726Z,43.30
2018-08-11T18:28:03.187Z,43.90
2018-08-11T18:32:56.537Z,43.90
2018-08-11T18:37:49.922Z,44.20
2018-08-11T18:42:43.305Z,44.40
2018-08-11T18:47:36.647Z,45.20
2018-08-11T18:52:29.965Z,45.80
2018-08-11T18:57:23.337Z,46.50
2018-08-11T19:02:16.716Z,46.90
2018-08-11T19:07:10.162Z,47.50
2018-08-11T19:12:03.644Z,48.10
2018-08-11T19:16:56.998Z,48.50
2018-08-11T19:21:50.381Z,49.30
2018-08-11T19:26:43.728Z,50.80
2018-08-11T19:31:37.070Z,50.80
2018-08-11T19:36:30.507Z,51.30
2018-08-11T19:41:23.840Z,51.90
2018-08-11T19:46:17.367Z,52.60
2018-08-11T19:51:10.659Z,52.90
2018-08-11T19:56:04.278Z,53.50
2018-08-11T20:00:57.598Z,54.20
2018-08-11T20:05:51.049Z,54.80
2018-08-11T20:10:44.443Z,55.90
2018-08-11T20:15:37.844Z,56.40
2018-08-11T20:20:31.289Z,57.30
2018-08-11T20:25:24.854Z,58.10
2018-08-11T20:30:18.134Z,59.00
2018-08-11T20:35:11.612Z,59.20
2018-08-11T20:40:05.494Z,60.10
2018-08-11T20:44:58.935Z,60.80
2018-08-11T20:49:52.310Z,62.70
2018-08-11T20:54:45.810Z,63.30
2018-08-11T20:59:39.175Z,65.00
2018-08-11T21:04:32.605Z,66.30
2018-08-11T21:09:25.985Z,67.50
2018-08-11T21:14:19.448Z,68.50
2018-08-11T21:19:12.829Z,69.60
2018-08-11T21:24:06.230Z,70.10
2018-08-11T21:28:59.636Z,71.10
2018-08-11T21:33:53.060Z,71.50
2018-08-11T21:38:46.504Z,71.80
2018-08-11T21:43:39.920Z,72.20
2018-08-11T21:48:33.484Z,71.60
2018-08-11T21:53:26.879Z,71.20
2018-08-11T21:58:20.310Z,71.60
2018-08-11T22:03:13.720Z,72.30
2018-08-11T22:08:07.176Z,72.80
2018-08-11T22:13:00.711Z,73.50
2018-08-11T22:17:54.261Z,74.20
2018-08-11T22:22:47.712Z,74.40
2018-08-11T22:27:41.753Z,75.50
2018-08-11T22:32:35.542Z,74.40
2018-08-11T22:37:28.934Z,75.40
2018-08-11T22:42:22.298Z,75.40
2018-08-11T22:47:15.760Z,76.30
2018-08-11T22:52:09.121Z,76.20
2018-08-11T22:57:02.819Z,77.20
2018-08-11T23:01:56.238Z,77.80
2018-08-11T23:06:49.590Z,78.70
2018-08-11T23:11:43.004Z,80.00
2018-08-11T23:16:36.359Z,80.40
2018-08-11T23:21:29.749Z,79.90
2018-08-11T23:26:23.159Z,79.00
2018-08-11T23:31:16.559Z,77.50
2018-08-11T23:36:09.961Z,77.60
2018-08-11T23:41:03.444Z,79.20
2018-08-11T23:45:56.853Z,79.50
2018-08-11T23:50:50.408Z,80.10
2018-08-11T23:55:43.876Z,80.20
